createdAt,value
2023-04-05T00:00:29.326Z,4.60
2023-04-05T00:03:03.123Z,4.10
2023-04-05T00:05:36.494Z,3.80
2023-04-05T00:08:13.536Z,3.53
2023-04-05T00:10:46.575Z,3.60
2023-04-05T00:13:20.992Z,3.93
2023-04-05T00:15:54.957Z,3.73
2023-04-05T00:18:28.210Z,3.93
2023-04-05T00:21:01.374Z,3.70
2023-04-05T00:23:38.572Z,3.83
2023-04-05T00:26:12.261Z,3.93
2023-04-05T00:28:47.853Z,3.77
2023-04-05T00:31:20.704Z,3.87
2023-04-05T00:33:53.773Z,3.90
2023-04-05T00:36:26.870Z,3.30
2023-04-05T00:38:59.923Z,3.63
2023-04-05T00:41:33.677Z,3.67
2023-04-05T00:44:08.796Z,3.80
2023-04-05T00:46:44.920Z,4.37
2023-04-05T00:49:18.637Z,4.17
2023-04-05T00:51:52.106Z,4.23
2023-04-05T00:54:25.562Z,4.20
2023-04-05T00:56:59.506Z,4.20
2023-04-05T00:59:35.102Z,4.03
2023-04-05T01:02:13.476Z,4.67
2023-04-05T01:04:50.214Z,4.40
2023-04-05T01:07:27.221Z,5.30
2023-04-05T01:10:05.513Z,4.27
2023-04-05T01:12:38.676Z,5.10
2023-04-05T01:15:17.552Z,4.00
2023-04-05T01:17:50.308Z,4.00
2023-04-05T01:20:25.936Z,4.70
2023-04-05T01:23:16.983Z,4.23
2023-04-05T01:26:08.845Z,3.90
2023-04-05T01:28:58.775Z,4.40
2023-04-05T01:31:38.480Z,4.57
2023-04-05T01:34:15.850Z,4.27
2023-04-05T01:36:51.458Z,4.30
2023-04-05T01:39:25.555Z,3.90
2023-04-05T01:42:02.631Z,4.53
2023-04-05T01:44:35.949Z,3.90
2023-04-05T01:47:10.081Z,4.27
2023-04-05T01:49:44.919Z,3.70
2023-04-05T01:52:20.934Z,5.13
2023-04-05T01:54:54.408Z,3.90
2023-04-05T01:57:27.437Z,3.93
2023-04-05T02:00:00.481Z,3.80
2023-04-05T02:02:36.420Z,4.10
2023-04-05T02:05:09.649Z,4.37
2023-04-05T02:07:45.303Z,4.50
2023-04-05T02:10:18.886Z,4.77
2023-04-05T02:12:51.809Z,4.03
2023-04-05T02:15:24.878Z,4.40
2023-04-05T02:18:02.286Z,3.80
2023-04-05T02:20:35.341Z,4.13
2023-04-05T02:23:08.331Z,4.07
2023-04-05T02:25:41.277Z,4.23
2023-04-05T02:28:14.042Z,3.77
2023-04-05T02:30:46.715Z,3.70
2023-04-05T02:33:22.587Z,4.27
2023-04-05T02:35:55.700Z,4.60
2023-04-05T02:38:28.535Z,3.80
2023-04-05T02:41:01.241Z,4.20
2023-04-05T02:43:38.383Z,4.63
2023-04-05T02:46:11.060Z,3.77
2023-04-05T02:48:48.367Z,4.50
2023-04-05T02:51:21.332Z,4.43
2023-04-05T02:53:54.170Z,4.63
2023-04-05T02:56:26.924Z,4.23
2023-04-05T02:58:59.772Z,4.23
2023-04-05T03:01:32.947Z,4.73
2023-04-05T03:04:07.339Z,4.57
2023-04-05T03:06:48.564Z,4.33
2023-04-05T03:09:21.461Z,4.63
2023-04-05T03:11:54.213Z,4.10
2023-04-05T03:14:27.498Z,4.73
2023-04-05T03:17:01.263Z,4.63
2023-04-05T03:19:36.204Z,4.43
2023-04-05T03:22:09.069Z,4.27
2023-04-05T03:24:42.884Z,4.20
2023-04-05T03:27:15.672Z,3.80
2023-04-05T03:29:49.216Z,4.17
2023-04-05T03:32:21.996Z,3.83
2023-04-05T03:34:56.771Z,4.33
2023-04-05T03:37:29.717Z,4.03
2023-04-05T03:40:03.732Z,4.03
2023-04-05T03:42:38.708Z,4.20
2023-04-05T03:45:11.758Z,4.30
2023-04-05T03:47:44.548Z,4.43
2023-04-05T03:50:18.835Z,4.30
2023-04-05T03:52:51.662Z,4.27
2023-04-05T03:55:24.530Z,4.20
2023-04-05T03:57:57.490Z,4.50
2023-04-05T04:00:30.291Z,4.37
2023-04-05T04:03:05.329Z,4.67
2023-04-05T04:05:40.259Z,4.33
2023-04-05T04:08:13.580Z,5.50
2023-04-05T04:10:46.317Z,4.63
2023-04-05T04:13:19.611Z,5.03
2023-04-05T04:15:54.279Z,4.77
2023-04-05T04:18:46.927Z,4.10
2023-04-05T04:21:32.699Z,4.50
2023-04-05T04:24:05.950Z,4.00
2023-04-05T04:26:41.087Z,4.30
2023-04-05T04:29:17.192Z,3.80
2023-04-05T04:31:50.549Z,4.33
2023-04-05T04:34:25.535Z,3.80
2023-04-05T04:37:01.771Z,3.70
2023-04-05T04:39:37.370Z,4.63
2023-04-05T04:42:11.890Z,4.13
2023-04-05T04:44:45.686Z,4.00
2023-04-05T04:47:21.822Z,4.63
2023-04-05T04:49:57.832Z,3.97
2023-04-05T04:52:32.001Z,4.20
2023-04-05T04:55:05.774Z,3.83
2023-04-05T04:57:39.750Z,3.80
2023-04-05T05:00:15.501Z,3.60
2023-04-05T05:02:48.355Z,3.60
2023-04-05T05:05:22.612Z,3.50
2023-04-05T05:07:57.029Z,4.33
2023-04-05T05:10:37.924Z,3.90
2023-04-05T05:13:11.192Z,4.00
2023-04-05T05:15:43.955Z,3.93
2023-04-05T05:18:17.149Z,4.13
2023-04-05T05:20:51.735Z,3.67
2023-04-05T05:23:26.859Z,4.10
2023-04-05T05:26:00.293Z,3.97
2023-04-05T05:28:34.194Z,3.47
2023-04-05T05:31:07.336Z,3.80
2023-04-05T05:33:40.301Z,3.40
2023-04-05T05:39:05.230Z,3.47
2023-04-05T05:41:38.082Z,3.17
2023-04-05T05:44:13.299Z,3.83
2023-04-05T05:46:46.043Z,3.43
2023-04-05T05:49:18.993Z,3.60
2023-04-05T05:51:52.542Z,3.70
2023-04-05T05:54:34.196Z,3.27
2023-04-05T05:57:07.337Z,3.03
2023-04-05T05:59:41.447Z,3.30
2023-04-05T06:02:14.643Z,3.77
2023-04-05T06:04:47.791Z,3.43
2023-04-05T06:07:21.337Z,3.27
2023-04-05T06:09:56.197Z,3.50
2023-04-05T06:12:30.433Z,2.93
2023-04-05T06:15:03.624Z,3.40
2023-04-05T06:17:41.812Z,2.97
2023-04-05T06:20:15.349Z,3.47
2023-04-05T06:22:48.188Z,3.70
2023-04-05T06:25:22.385Z,3.50
2023-04-05T06:27:55.192Z,2.93
2023-04-05T06:30:28.178Z,3.67
2023-04-05T06:33:01.402Z,3.57
2023-04-05T06:35:34.133Z,3.83
2023-04-05T06:38:07.303Z,3.47
2023-04-05T06:40:41.829Z,4.20
2023-04-05T06:43:14.932Z,3.47
2023-04-05T06:45:47.775Z,4.00
2023-04-05T06:48:21.281Z,3.57
2023-04-05T06:50:59.773Z,3.80
2023-04-05T06:53:34.490Z,4.10
2023-04-05T06:56:09.247Z,3.63
2023-04-05T06:58:41.981Z,4.10
2023-04-05T07:01:14.959Z,3.97
2023-04-05T07:03:47.815Z,3.80
2023-04-05T07:06:20.610Z,3.27
2023-04-05T07:08:53.663Z,3.70
2023-04-05T07:11:28.414Z,4.03
2023-04-05T07:14:01.467Z,4.03
2023-04-05T07:16:34.385Z,4.67
2023-04-05T07:19:07.426Z,4.50
2023-04-05T07:21:40.626Z,4.23
2023-04-05T07:24:13.980Z,4.80
2023-04-05T07:26:48.429Z,4.73
2023-04-05T07:29:21.445Z,4.37
2023-04-05T07:31:54.521Z,5.33
2023-04-05T07:34:27.597Z,5.20
2023-04-05T07:37:00.717Z,4.43
2023-04-05T07:39:33.855Z,4.47
2023-04-05T07:42:08.547Z,4.83
2023-04-05T07:44:41.556Z,4.33
2023-04-05T07:47:14.477Z,4.57
2023-04-05T07:49:47.466Z,4.77
2023-04-05T07:52:20.269Z,4.43
2023-04-05T07:54:55.159Z,4.53
2023-04-05T07:57:29.620Z,4.60
2023-04-05T08:00:04.593Z,4.27
2023-04-05T08:02:37.703Z,4.80
2023-04-05T08:05:10.574Z,4.70
2023-04-05T08:07:44.894Z,4.80
2023-04-05T08:10:17.764Z,5.00
2023-04-05T08:12:52.086Z,4.80
2023-04-05T08:15:24.874Z,4.60
2023-04-05T08:17:57.888Z,4.97
2023-04-05T08:20:30.904Z,4.63
2023-04-05T08:23:12.744Z,4.63
2023-04-05T08:25:45.894Z,4.30
2023-04-05T08:28:20.359Z,4.30
2023-04-05T08:30:54.560Z,4.30
2023-04-05T08:33:31.088Z,4.03
2023-04-05T08:36:07.336Z,3.60
2023-04-05T08:38:40.188Z,4.27
2023-04-05T08:41:18.013Z,4.20
2023-04-05T08:43:59.016Z,4.00
2023-04-05T08:46:33.144Z,3.77
2023-04-05T08:49:07.331Z,4.10
2023-04-05T08:51:40.693Z,4.07
2023-04-05T08:54:14.419Z,3.60
2023-04-05T08:56:48.253Z,3.70
2023-04-05T08:59:23.160Z,4.37
2023-04-05T09:01:56.253Z,4.00
2023-04-05T09:04:32.852Z,4.37
2023-04-05T09:07:07.421Z,4.13
2023-04-05T09:09:40.901Z,3.90
2023-04-05T09:12:13.665Z,4.60
2023-04-05T09:14:48.985Z,4.07
2023-04-05T09:17:22.721Z,3.90
2023-04-05T09:19:55.627Z,4.40
2023-04-05T09:22:31.454Z,3.87
2023-04-05T09:25:04.412Z,4.43
2023-04-05T09:27:37.820Z,4.30
2023-04-05T09:30:21.952Z,3.90
2023-04-05T09:32:55.834Z,4.07
2023-04-05T09:35:29.994Z,4.27
2023-04-05T09:38:07.611Z,4.77
2023-04-05T09:40:44.985Z,3.80
2023-04-05T09:43:32.543Z,4.20
2023-04-05T09:46:06.825Z,4.43
2023-04-05T09:48:58.126Z,4.67
2023-04-05T09:51:35.567Z,4.10
2023-04-05T09:54:08.885Z,3.50
2023-04-05T09:56:54.639Z,4.10
2023-04-05T09:59:30.886Z,3.83
2023-04-05T10:02:05.622Z,3.80
2023-04-05T10:04:41.882Z,4.77
2023-04-05T10:07:15.896Z,4.50
2023-04-05T10:09:49.085Z,4.13
2023-04-05T10:12:25.401Z,4.30
2023-04-05T10:14:58.294Z,3.87
2023-04-05T10:17:37.615Z,4.20
2023-04-05T10:20:12.115Z,4.17
2023-04-05T10:22:57.475Z,4.60
2023-04-05T10:25:36.723Z,3.80
2023-04-05T10:28:12.146Z,4.00
2023-04-05T10:30:49.929Z,3.40
2023-04-05T10:33:28.043Z,3.60
2023-04-05T10:36:06.080Z,3.57
2023-04-05T10:38:53.390Z,3.40
2023-04-05T10:41:26.476Z,3.70
2023-04-05T10:44:00.032Z,3.50
2023-04-05T10:46:34.353Z,3.97
2023-04-05T10:49:11.938Z,3.30
2023-04-05T10:51:45.202Z,3.40
2023-04-05T10:54:20.700Z,3.50
2023-04-05T10:56:54.410Z,3.30
2023-04-05T10:59:30.901Z,3.93
2023-04-05T11:02:06.689Z,3.70
2023-04-05T11:04:42.348Z,3.73
2023-04-05T11:07:16.640Z,3.90
2023-04-05T11:09:52.610Z,3.47
2023-04-05T11:12:53.461Z,4.03
2023-04-05T11:15:33.044Z,3.37
2023-04-05T11:18:07.206Z,3.67
2023-04-05T11:21:08.650Z,3.43
2023-04-05T11:24:01.276Z,3.83
2023-04-05T11:26:35.029Z,3.77
2023-04-05T11:29:09.842Z,3.57
2023-04-05T11:32:03.266Z,3.60
2023-04-05T11:34:38.953Z,4.00
2023-04-05T11:37:16.280Z,4.30
2023-04-05T11:39:49.172Z,4.03
2023-04-05T11:42:25.294Z,3.67
2023-04-05T11:44:59.059Z,3.67
2023-04-05T11:47:31.948Z,3.63
2023-04-05T11:50:05.580Z,3.43
2023-04-05T11:52:39.790Z,3.40
2023-04-05T11:55:13.567Z,3.40
2023-04-05T11:57:53.288Z,3.50
2023-04-05T12:00:26.545Z,3.63
2023-04-05T12:02:59.564Z,3.70
2023-04-05T12:05:46.136Z,4.03
2023-04-05T12:08:20.944Z,3.43
2023-04-05T12:10:57.017Z,3.40
2023-04-05T12:13:30.438Z,2.90
2023-04-05T12:16:04.021Z,3.10
2023-04-05T12:18:37.361Z,3.10
2023-04-05T12:21:10.367Z,3.60
2023-04-05T12:23:44.648Z,2.40
2023-04-05T12:26:18.066Z,3.13
2023-04-05T12:28:51.207Z,3.10
2023-04-05T12:31:36.561Z,3.03
2023-04-05T12:34:09.869Z,3.20
2023-04-05T12:36:45.234Z,3.33
2023-04-05T12:39:19.308Z,2.97
2023-04-05T12:41:57.536Z,2.93
2023-04-05T12:44:31.104Z,3.23
2023-04-05T12:47:07.619Z,2.90
2023-04-05T12:49:40.400Z,2.90
2023-04-05T12:52:20.786Z,3.00
2023-04-05T12:54:58.129Z,2.80
2023-04-05T12:57:31.517Z,3.07
2023-04-05T13:00:05.288Z,3.90
2023-04-05T13:02:38.127Z,3.60
2023-04-05T13:05:10.997Z,3.20
2023-04-05T13:07:44.165Z,3.50
2023-04-05T13:10:18.427Z,3.10
2023-04-05T13:12:51.692Z,3.33
2023-04-05T13:15:25.614Z,2.90
2023-04-05T13:17:58.729Z,3.40
2023-04-05T13:20:31.755Z,3.23
2023-04-05T13:23:10.673Z,3.60
2023-04-05T13:25:46.314Z,3.27
2023-04-05T13:28:19.103Z,4.60
2023-04-05T13:30:53.461Z,3.50
2023-04-05T13:33:27.481Z,3.20
2023-04-05T13:36:00.318Z,3.17
2023-04-05T13:38:35.957Z,3.23
2023-04-05T13:41:10.452Z,3.50
2023-04-05T13:43:43.291Z,3.17
2023-04-05T13:46:16.074Z,3.63
2023-04-05T13:48:48.992Z,3.63
2023-04-05T13:51:21.778Z,3.30
2023-04-05T13:53:54.513Z,3.40
2023-04-05T13:56:28.778Z,3.60
2023-04-05T13:59:03.144Z,3.70
2023-04-05T14:01:36.297Z,3.30
2023-04-05T14:04:11.007Z,4.10
2023-04-05T14:06:43.994Z,3.40
2023-04-05T14:09:17.275Z,4.07
2023-04-05T14:11:51.484Z,3.57
2023-04-05T14:14:33.704Z,3.63
2023-04-05T14:17:07.429Z,3.13
2023-04-05T14:19:40.862Z,3.70
2023-04-05T14:22:13.943Z,3.97
2023-04-05T14:24:49.095Z,3.33
2023-04-05T14:27:27.023Z,3.47
2023-04-05T14:30:00.398Z,3.47
2023-04-05T14:32:33.954Z,3.37
2023-04-05T14:35:07.319Z,3.33
2023-04-05T14:37:40.357Z,3.33
2023-04-05T14:40:13.473Z,3.30
2023-04-05T14:42:51.373Z,3.23
2023-04-05T14:45:27.194Z,3.40
2023-04-05T14:48:00.428Z,3.53
2023-04-05T14:50:39.811Z,3.13
2023-04-05T14:53:12.944Z,3.40
2023-04-05T14:55:45.874Z,4.03
2023-04-05T14:58:20.337Z,3.03
2023-04-05T15:00:53.363Z,3.10
2023-04-05T15:03:26.454Z,3.27
2023-04-05T15:05:59.771Z,3.47
2023-04-05T15:08:32.873Z,3.30
2023-04-05T15:11:06.482Z,4.20
2023-04-05T15:13:45.692Z,4.37
2023-04-05T15:16:18.600Z,3.57
2023-04-05T15:18:51.626Z,3.70
2023-04-05T15:21:25.271Z,3.60
2023-04-05T15:23:58.212Z,3.10
2023-04-05T15:26:31.231Z,3.60
2023-04-05T15:29:05.677Z,4.00
2023-04-05T15:31:39.458Z,3.77
2023-04-05T15:34:12.478Z,3.33
2023-04-05T15:36:45.542Z,3.40
2023-04-05T15:39:19.475Z,3.30
2023-04-05T15:41:52.607Z,3.43
2023-04-05T15:44:27.279Z,4.07
2023-04-05T15:47:00.401Z,3.90
2023-04-05T15:49:33.881Z,4.07
2023-04-05T15:52:06.766Z,3.77
2023-04-05T15:54:39.718Z,3.67
2023-04-05T15:57:12.707Z,3.20
2023-04-05T15:59:50.006Z,3.93
2023-04-05T16:02:22.995Z,3.73
2023-04-05T16:04:55.892Z,3.50
2023-04-05T16:07:28.758Z,3.87
2023-04-05T16:10:01.857Z,3.60
2023-04-05T16:12:34.862Z,3.70
2023-04-05T16:15:09.587Z,3.73
2023-04-05T16:17:42.417Z,3.83
2023-04-05T16:20:17.495Z,3.83
2023-04-05T16:22:54.143Z,3.97
2023-04-05T16:25:27.030Z,4.17
2023-04-05T16:27:59.986Z,3.90
2023-04-05T16:30:34.548Z,3.93
2023-04-05T16:33:07.554Z,3.60
2023-04-05T16:35:40.680Z,3.63
2023-04-05T16:38:13.527Z,4.20
2023-04-05T16:40:48.740Z,4.10
2023-04-05T16:43:27.125Z,3.93
2023-04-05T16:46:02.852Z,3.67
2023-04-05T16:48:36.336Z,4.07
2023-04-05T16:51:09.491Z,3.80
2023-04-05T16:53:42.526Z,3.90
2023-04-05T16:56:15.974Z,3.20
2023-04-05T16:58:48.871Z,3.70
2023-04-05T17:01:23.890Z,3.30
2023-04-05T17:03:59.781Z,3.23
2023-04-05T17:06:33.682Z,3.30
2023-04-05T17:09:09.468Z,3.03
2023-04-05T17:11:42.542Z,2.90
2023-04-05T17:14:16.735Z,3.20
2023-04-05T17:16:50.957Z,3.27
2023-04-05T17:19:25.168Z,3.10
2023-04-05T17:21:58.141Z,4.27
2023-04-05T17:24:34.514Z,3.60
2023-04-05T17:27:07.647Z,3.63
2023-04-05T17:29:40.496Z,3.73
2023-04-05T17:32:17.253Z,3.60
2023-04-05T17:34:50.184Z,3.67
2023-04-05T17:37:23.098Z,3.80
2023-04-05T17:39:56.007Z,3.57
2023-04-05T17:42:29.081Z,4.17
2023-04-05T17:45:02.603Z,6.13
2023-04-05T17:47:43.613Z,8.37
2023-04-05T17:50:20.378Z,5.60
2023-04-05T17:52:54.034Z,22.63
2023-04-05T17:55:27.028Z,11.07
2023-04-05T17:58:00.044Z,11.00
2023-04-05T18:00:32.939Z,38.30
2023-04-05T18:03:08.228Z,23.53
2023-04-05T18:05:41.758Z,22.77
2023-04-05T18:08:15.566Z,21.73
2023-04-05T18:10:48.459Z,13.07
2023-04-05T18:13:21.396Z,7.43
2023-04-05T18:15:54.662Z,9.13
2023-04-05T18:18:29.046Z,9.03
2023-04-05T18:21:02.841Z,10.23
2023-04-05T18:23:35.847Z,5.33
2023-04-05T18:26:10.715Z,6.53
2023-04-05T18:28:43.385Z,11.43
2023-04-05T18:31:18.799Z,5.80
2023-04-05T18:33:53.618Z,6.03
2023-04-05T18:36:26.806Z,9.07
2023-04-05T18:39:00.835Z,8.40
2023-04-05T18:41:33.690Z,8.27
2023-04-05T18:44:06.689Z,7.40
2023-04-05T18:46:39.703Z,7.30
2023-04-05T18:49:22.683Z,6.03
2023-04-05T18:51:55.931Z,5.97
2023-04-05T18:54:28.895Z,6.40
2023-04-05T18:57:04.346Z,7.43
2023-04-05T18:59:40.117Z,6.87
2023-04-05T19:02:12.977Z,8.03
2023-04-05T19:04:47.305Z,7.07
2023-04-05T19:07:20.286Z,6.90
2023-04-05T19:09:53.224Z,5.83
2023-04-05T19:12:26.304Z,7.70
2023-04-05T19:14:59.476Z,6.60
2023-04-05T19:17:34.848Z,7.20
2023-04-05T19:20:09.920Z,10.03
2023-04-05T19:22:42.884Z,8.03
2023-04-05T19:25:16.104Z,7.83
2023-04-05T19:27:49.221Z,6.03
2023-04-05T19:30:26.126Z,5.70
2023-04-05T19:32:59.029Z,6.53
2023-04-05T19:35:34.006Z,6.93
2023-04-05T19:38:07.851Z,7.97
2023-04-05T19:40:41.485Z,8.37
2023-04-05T19:43:14.434Z,7.80
2023-04-05T19:45:50.767Z,12.20
2023-04-05T19:48:46.992Z,8.87
2023-04-05T19:51:27.194Z,6.77
2023-04-05T19:54:00.504Z,5.73
2023-04-05T19:56:34.521Z,5.90
2023-04-05T19:59:20.455Z,5.47
2023-04-05T20:01:53.509Z,4.37
2023-04-05T20:04:27.248Z,4.60
2023-04-05T20:07:03.050Z,4.37
2023-04-05T20:09:38.632Z,4.37
2023-04-05T20:12:13.299Z,4.60
2023-04-05T20:14:48.065Z,5.93
2023-04-05T20:17:23.000Z,6.20
2023-04-05T20:19:57.302Z,5.17
2023-04-05T20:22:33.608Z,5.40
2023-04-05T20:25:29.817Z,5.40
2023-04-05T20:28:04.031Z,5.13
2023-04-05T20:30:37.022Z,5.00
2023-04-05T20:33:10.477Z,5.57
2023-04-05T20:35:43.482Z,5.33
2023-04-05T20:38:17.966Z,5.40
2023-04-05T20:40:50.914Z,5.23
2023-04-05T20:43:24.123Z,4.90
2023-04-05T20:45:57.540Z,5.37
2023-04-05T20:48:30.964Z,5.73
2023-04-05T20:51:05.898Z,5.27
2023-04-05T20:53:40.383Z,5.83
2023-04-05T20:56:14.006Z,6.63
2023-04-05T20:58:47.090Z,6.33
2023-04-05T21:01:27.640Z,5.87
2023-04-05T21:04:00.684Z,6.50
2023-04-05T21:06:34.270Z,6.97
2023-04-05T21:09:09.431Z,6.77
2023-04-05T21:11:43.018Z,6.50
2023-04-05T21:14:16.295Z,6.60
2023-04-05T21:16:49.220Z,6.50
2023-04-05T21:19:22.205Z,8.40
2023-04-05T21:21:55.424Z,7.87
2023-04-05T21:24:30.014Z,7.87
2023-04-05T21:27:03.100Z,8.57
2023-04-05T21:29:36.178Z,7.83
2023-04-05T21:32:09.098Z,7.87
2023-04-05T21:34:42.083Z,7.37
2023-04-05T21:37:14.940Z,8.00
2023-04-05T21:39:49.503Z,7.60
2023-04-05T21:42:22.792Z,7.33
2023-04-05T21:44:55.665Z,7.27
2023-04-05T21:47:28.624Z,6.73
2023-04-05T21:50:01.889Z,7.20
2023-04-05T21:52:36.355Z,7.47
2023-04-05T21:55:11.261Z,6.93
2023-04-05T21:57:46.578Z,7.30
2023-04-05T22:00:21.142Z,7.40
2023-04-05T22:02:55.036Z,7.43
2023-04-05T22:05:37.279Z,8.00
2023-04-05T22:08:11.311Z,7.27
2023-04-05T22:10:46.337Z,7.43
2023-04-05T22:13:19.338Z,6.87
2023-04-05T22:15:52.230Z,7.10
2023-04-05T22:18:25.601Z,6.87
2023-04-05T22:21:01.890Z,6.47
2023-04-05T22:23:34.815Z,6.87
2023-04-05T22:26:09.418Z,7.30
2023-04-05T22:29:02.401Z,7.57
2023-04-05T22:31:35.577Z,7.90
2023-04-05T22:34:08.621Z,7.60
2023-04-05T22:36:42.567Z,7.30
2023-04-05T22:39:15.645Z,7.37
2023-04-05T22:41:49.990Z,7.93
2023-04-05T22:44:24.290Z,6.90
2023-04-05T22:46:57.307Z,7.43
2023-04-05T22:49:30.158Z,7.93
2023-04-05T22:52:03.997Z,7.73
2023-04-05T22:54:37.019Z,7.53
2023-04-05T22:57:11.762Z,7.43
2023-04-05T22:59:44.727Z,7.00
2023-04-05T23:02:17.724Z,7.20
2023-04-05T23:04:50.834Z,6.60
2023-04-05T23:07:25.254Z,6.60
2023-04-05T23:09:58.166Z,7.27
2023-04-05T23:12:32.604Z,6.50
2023-04-05T23:15:06.126Z,6.63
2023-04-05T23:17:39.114Z,6.90
2023-04-05T23:20:12.536Z,7.03
2023-04-05T23:22:48.015Z,6.37
2023-04-05T23:25:23.238Z,6.60
2023-04-05T23:27:57.577Z,6.30
2023-04-05T23:30:30.574Z,6.87
2023-04-05T23:33:06.913Z,6.80
2023-04-05T23:35:40.538Z,6.10
2023-04-05T23:38:13.594Z,5.50
2023-04-05T23:40:46.500Z,6.03
2023-04-05T23:43:20.842Z,5.87
2023-04-05T23:45:59.414Z,7.07
2023-04-05T23:48:32.392Z,5.87
2023-04-05T23:51:05.521Z,5.33
2023-04-05T23:53:38.557Z,6.07
2023-04-05T23:56:11.449Z,6.23
2023-04-05T23:58:45.718Z,5.93
